Observations for EDINBURGH AIRPORT, United Kingdom (EGPH)

EGPH 240920Z 05010KT 1600 DZ OVC002 13/13 Q1018 
EGPH 240850Z 05010KT 1700 -RADZ OVC003 12/12 Q1019  
EGPH 240820Z 06011KT 5000 BR OVC003 12/12 Q1019 
EGPH 240750Z 06013KT 6000 OVC003 12/12 Q1018
EGPH 240720Z 06012KT 9000 OVC003 12/12 Q1018
EGPH 240650Z 07012KT 9999 OVC002 12/12 Q1018
EGPH 240620Z 06012KT 9999 OVC002 13/13 Q1018
EGPH 240550Z 06013KT 9999 -RA OVC002 13/13 Q1018
EGPH 240520Z 06011KT 9000 OVC002 13/13 Q1019
EGPH 240450Z 07011KT 9999 -RA OVC002 13/13 Q1019
EGPH 240420Z 06014KT 6000 -RA OVC002TCU 13/13 Q1018 
EGPH 240350Z 05016KT 5000 -RA BKN002TCU 13/13 Q1019 RERA
EGPH 240320Z 05009KT 5000 -RA OVC004CB 13/13 Q1020  
EGPH 240250Z 06010KT 7000 -RA OVC003TCU 13/13 Q1020 
EGPH 240220Z 06010KT 8000 -RA OVC003TCU 13/13 Q1020 
EGPH 240150Z 05011KT 9999 -RA OVC003TCU 13/13 Q1020 
EGPH 240120Z 06012KT 9999 -RA OVC004 13/13 Q1021
EGPH 240050Z 05011KT 9999 -RA OVC004 13/13 Q1021
EGPH 240020Z 06010KT 9999 -RA BKN004 13/13 Q1021
EGPH 232350Z 06011KT 9999 -RA BKN004 13/13 Q1021
EGPH 232320Z 06010KT 9999 BKN006 13/12 Q1021
EGPH 232250Z 06011KT 9999 BKN006 13/12 Q1022
EGPH 232220Z 07010KT 9999 SCT007 13/12 Q1022
EGPH 232150Z 07009KT 9999 BKN006 13/12 Q1022
EGPH 232120Z 06010KT 9999 SCT006 13/12 Q1022
EGPH 232050Z 06012KT 9999 FEW005 13/12 Q1022
EGPH 232020Z 05013KT 9999 FEW006 13/12 Q1021
EGPH 231950Z 06012KT CAVOK 13/12 Q1021  
EGPH 231920Z 03008KT CAVOK 14/11 Q1021  
EGPH 231850Z 08009KT CAVOK 16/07 Q1021  
EGPH 231820Z 10010KT CAVOK 17/06 Q1021  
EGPH 231750Z 09011KT CAVOK 17/07 Q1021  
EGPH 231720Z 09011KT CAVOK 18/07 Q1021  
EGPH 231650Z 10009KT CAVOK 19/08 Q1020  
EGPH 231620Z 10013KT CAVOK 20/07 Q1020  
EGPH 231550Z 11012KT CAVOK 20/07 Q1020  
EGPH 231520Z 11012KT 070V130 CAVOK 21/08 Q1020  
EGPH 231450Z 05008KT CAVOK 19/14 Q1020  
EGPH 231420Z 05011KT CAVOK 17/14 Q1020  
EGPH 231350Z 05013KT CAVOK 18/13 Q1020  
EGPH 231320Z 06012KT 9999 FEW040 18/14 Q1020
EGPH 231250Z 06012KT 9999 FEW040 18/13 Q1020
EGPH 231220Z 06012KT 9999 FEW040 17/13 Q1021
EGPH 231150Z 05011KT 9999 FEW022 17/14 Q1021
EGPH 231120Z 05009KT 9999 FEW013 17/14 Q1021
EGPH 231050Z 04010KT 9999 SCT012 16/13 Q1021
EGPH 231020Z 05007KT 020V110 9999 SCT010 16/13 Q1021
EGPH 230950Z 07007KT 9999 SCT010 15/13 Q1021
EGPH 230920Z 06007KT 9999 BKN009 14/12 Q1021
EGPH 230850Z 05007KT 9999 OVC009 14/12 Q1021